Time;durP1;ratioP1;P1;durP2;ratioP2;P2;SDS_P1;SDS_P2;PMS_P1;PMS_P2;Temp;Humidity;BMP_temperature;BMP_pressure;BME280_temperature;BME280_humidity;BME280_pressure;Samples;Min_cycle;Max_cycle;Signal;HPM_P1;HPM_P2
2022/08/13 00:01:25;;;;;;;0.90;0.90;;;25.20;1.00;;;;;;5058585;28;20459;-84
2022/08/13 00:04:01;;;;;;;1.00;1.00;;;25.10;1.00;;;;;;5066633;28;20580;-84
2022/08/13 00:09:23;;;;;;;1.33;1.10;;;25.10;1.00;;;;;;5063305;28;20492;-84
2022/08/13 00:15:01;;;;;;;1.13;1.03;;;25.00;1.00;;;;;;5067571;28;20461;-84
2022/08/13 00:17:33;;;;;;;1.03;1.00;;;25.00;1.00;;;;;;5058664;28;20458;-84
2022/08/13 00:20:26;;;;;;;0.90;0.90;;;25.00;1.00;;;;;;5065998;28;20533;-84
2022/08/13 00:22:58;;;;;;;1.50;1.10;;;25.00;1.00;;;;;;5066666;28;20494;-82
2022/08/13 00:25:29;;;;;;;0.87;0.87;;;24.90;1.00;;;;;;5055254;28;20448;-84
2022/08/13 00:28:14;;;;;;;1.43;1.20;;;24.90;1.00;;;;;;5062539;28;20545;-83
2022/08/13 00:30:44;;;;;;;0.97;0.97;;;24.80;1.00;;;;;;5067336;28;20996;-85
2022/08/13 00:33:17;;;;;;;1.20;1.10;;;24.90;1.00;;;;;;5062967;28;20476;-85
2022/08/13 00:35:50;;;;;;;1.20;1.10;;;24.80;1.00;;;;;;5064928;28;20460;-85
2022/08/13 00:38:22;;;;;;;0.90;0.90;;;24.80;1.00;;;;;;5058351;28;20462;-84
2022/08/13 00:41:04;;;;;;;1.10;1.00;;;24.80;1.00;;;;;;5066708;28;20470;-85
2022/08/13 00:43:33;;;;;;;1.00;1.00;;;24.80;1.00;;;;;;5062339;28;20495;-85
2022/08/13 00:46:04;;;;;;;1.40;1.30;;;24.80;1.00;;;;;;5068388;28;20458;-85
2022/08/13 00:48:42;;;;;;;1.43;1.20;;;24.80;1.00;;;;;;5065831;28;20455;-84
2022/08/13 00:51:21;;;;;;;2.13;1.40;;;24.80;1.00;;;;;;5067212;28;20486;-84
2022/08/13 00:54:12;;;;;;;1.13;0.93;;;24.70;1.00;;;;;;5057661;28;20449;-82
2022/08/13 00:56:41;;;;;;;1.17;1.07;;;24.60;1.00;;;;;;5063768;28;21149;-83
2022/08/13 00:59:12;;;;;;;1.77;1.27;;;24.50;1.00;;;;;;5061263;28;20454;-84
2022/08/13 01:01:43;;;;;;;1.33;1.23;;;24.50;1.00;;;;;;5060505;28;20471;-84
2022/08/13 01:04:21;;;;;;;1.10;1.10;;;24.40;1.00;;;;;;5066166;28;20459;-84
2022/08/13 01:06:57;;;;;;;1.20;1.10;;;24.30;1.00;;;;;;5064822;28;20599;-85
2022/08/13 01:09:29;;;;;;;1.00;1.00;;;24.30;1.00;;;;;;5062810;28;20505;-84
2022/08/13 01:12:20;;;;;;;0.90;0.90;;;24.20;1.00;;;;;;5062288;28;20513;-84
2022/08/13 01:14:55;;;;;;;3.80;1.07;;;24.10;1.00;;;;;;5064477;28;20447;-82
2022/08/13 01:17:27;;;;;;;2.70;0.90;;;24.00;1.00;;;;;;5063671;28;20456;-82
2022/08/13 01:20:20;;;;;;;1.10;1.00;;;23.90;1.00;;;;;;5063520;28;20480;-83
2022/08/13 01:23:03;;;;;;;1.73;1.30;;;23.90;1.00;;;;;;5061397;28;20858;-83
2022/08/13 01:25:32;;;;;;;2.93;1.00;;;23.80;1.00;;;;;;5062872;28;20523;-84
2022/08/13 01:28:22;;;;;;;1.40;0.97;;;23.80;1.00;;;;;;5069626;28;20534;-85
2022/08/13 01:30:52;;;;;;;1.30;1.23;;;23.70;1.00;;;;;;5063096;28;20471;-83
2022/08/13 01:33:21;;;;;;;1.30;1.20;;;23.60;1.00;;;;;;5070424;28;20532;-84
2022/08/13 01:35:52;;;;;;;1.20;1.10;;;23.50;1.00;;;;;;5068778;28;20450;-84
2022/08/13 01:38:24;;;;;;;1.30;1.10;;;23.60;1.00;;;;;;5069095;28;20442;-84
2022/08/13 01:40:54;;;;;;;1.00;1.00;;;23.60;1.00;;;;;;5060986;28;20912;-84
2022/08/13 01:43:28;;;;;;;1.30;1.20;;;23.60;1.00;;;;;;5065698;28;20556;-84
2022/08/13 01:45:59;;;;;;;1.27;1.17;;;23.60;1.00;;;;;;5067458;28;20454;-85
2022/08/13 01:51:31;;;;;;;1.07;1.07;;;23.70;1.00;;;;;;5052878;28;20482;-84
2022/08/13 01:54:17;;;;;;;1.03;0.93;;;23.80;1.00;;;;;;5069821;28;20454;-84
2022/08/13 01:57:06;;;;;;;2.20;1.70;;;23.80;1.00;;;;;;5059862;28;20550;-84
2022/08/13 01:59:37;;;;;;;1.90;1.20;;;23.80;1.00;;;;;;5064499;28;20473;-83
2022/08/13 02:02:27;;;;;;;1.20;1.10;;;23.80;1.00;;;;;;5061003;28;20633;-84
2022/08/13 02:05:10;;;;;;;1.23;1.13;;;23.90;1.00;;;;;;5066530;28;20456;-83
2022/08/13 02:08:00;;;;;;;1.37;1.07;;;23.80;1.00;;;;;;5063435;28;20526;-84
2022/08/13 02:10:38;;;;;;;1.93;1.10;;;23.90;1.00;;;;;;5057398;28;20441;-83
2022/08/13 02:13:11;;;;;;;1.10;1.00;;;23.90;1.00;;;;;;5059807;28;20497;-83
2022/08/13 02:15:46;;;;;;;1.30;1.20;;;23.80;1.00;;;;;;5054549;28;20475;-83
2022/08/13 02:18:21;;;;;;;1.30;1.20;;;23.80;1.00;;;;;;5060879;28;20453;-84
2022/08/13 02:20:52;;;;;;;1.30;1.20;;;23.80;1.00;;;;;;5058374;28;20486;-84
2022/08/13 02:23:22;;;;;;;1.00;1.00;;;23.80;1.00;;;;;;5064273;28;20519;-84
2022/08/13 02:26:13;;;;;;;1.77;1.10;;;23.80;1.00;;;;;;5061880;28;20593;-84
2022/08/13 02:28:43;;;;;;;1.57;1.13;;;23.80;1.00;;;;;;5066329;28;20443;-84
2022/08/13 02:31:17;;;;;;;1.77;1.40;;;23.80;1.00;;;;;;5059409;28;20473;-83
2022/08/13 02:34:07;;;;;;;1.20;1.10;;;23.80;1.00;;;;;;5065562;28;20453;-83
2022/08/13 02:36:48;;;;;;;0.90;0.90;;;23.80;1.00;;;;;;5056744;28;20526;-84
2022/08/13 02:39:36;;;;;;;1.00;1.00;;;23.70;1.00;;;;;;5060477;28;20440;-84
2022/08/13 02:42:12;;;;;;;1.30;1.20;;;23.70;1.00;;;;;;5069037;28;20462;-83
2022/08/13 02:44:47;;;;;;;1.13;1.07;;;23.80;1.00;;;;;;5064512;28;20454;-83
2022/08/13 02:47:20;;;;;;;1.00;1.00;;;23.70;1.00;;;;;;5059863;28;21166;-85
2022/08/13 02:50:08;;;;;;;1.20;1.10;;;23.80;1.00;;;;;;5059476;28;20556;-83
2022/08/13 02:52:39;;;;;;;1.53;1.10;;;23.70;1.00;;;;;;5063867;28;20493;-83
2022/08/13 02:55:29;;;;;;;1.37;1.23;;;23.70;1.00;;;;;;5064884;28;20450;-85
2022/08/13 02:58:05;;;;;;;1.27;1.17;;;23.60;1.00;;;;;;5066277;28;20447;-84
2022/08/13 03:00:36;;;;;;;1.40;1.30;;;23.50;1.00;;;;;;5060957;28;20545;-84
2022/08/13 03:03:05;;;;;;;1.13;1.10;;;23.40;1.00;;;;;;5064538;28;20557;-84
2022/08/13 03:05:38;;;;;;;1.13;1.10;;;23.30;1.00;;;;;;5069195;28;20480;-84
2022/08/13 03:08:27;;;;;;;1.30;1.20;;;23.20;1.00;;;;;;5056619;28;20469;-84
2022/08/13 03:11:09;;;;;;;1.30;1.20;;;23.20;1.00;;;;;;5078010;28;20555;-84
2022/08/13 03:13:45;;;;;;;1.27;1.17;;;23.10;1.00;;;;;;5064119;28;20452;-85
2022/08/13 03:16:22;;;;;;;1.73;1.23;;;23.10;1.00;;;;;;5063411;28;20454;-85
2022/08/13 03:18:53;;;;;;;2.27;1.40;;;23.00;1.00;;;;;;5059661;28;20557;-85
2022/08/13 03:21:24;;;;;;;1.13;1.13;;;23.00;1.00;;;;;;5058795;28;20480;-83
2022/08/13 03:24:13;;;;;;;1.67;1.47;;;22.90;1.00;;;;;;5062973;28;21122;-84
2022/08/13 03:26:57;;;;;;;1.13;1.03;;;22.90;1.00;;;;;;5064251;28;20462;-84
2022/08/13 03:29:28;;;;;;;1.30;1.20;;;22.80;1.00;;;;;;5065966;28;20454;-84
2022/08/13 03:32:17;;;;;;;1.10;1.00;;;22.80;1.00;;;;;;5055186;28;20480;-83
2022/08/13 03:34:58;;;;;;;1.37;1.27;;;22.70;1.00;;;;;;5060680;28;21948;-84
2022/08/13 03:37:43;;;;;;;1.30;1.20;;;22.60;1.00;;;;;;5059667;28;20473;-82
2022/08/13 03:40:14;;;;;;;1.50;1.40;;;22.50;1.00;;;;;;5062628;28;20446;-82
2022/08/13 03:42:48;;;;;;;1.20;1.10;;;22.50;1.00;;;;;;5060130;28;20491;-83
2022/08/13 03:45:24;;;;;;;1.63;1.43;;;22.50;1.00;;;;;;5060728;28;20443;-82
2022/08/13 03:47:55;;;;;;;1.43;1.33;;;22.40;1.00;;;;;;5063754;28;20467;-82
2022/08/13 03:50:24;;;;;;;1.40;1.30;;;22.40;1.00;;;;;;5055719;28;20440;-84
2022/08/13 03:52:53;;;;;;;1.53;1.40;;;22.30;1.00;;;;;;5053922;28;20479;-83
2022/08/13 03:55:23;;;;;;;1.30;1.20;;;22.30;1.00;;;;;;5065415;28;20477;-84
2022/08/13 03:57:55;;;;;;;1.57;1.17;;;22.20;1.00;;;;;;5062488;28;20450;-83
2022/08/13 04:00:47;;;;;;;2.10;1.30;;;22.20;1.00;;;;;;5051364;28;20456;-83
2022/08/13 04:03:20;;;;;;;1.37;1.27;;;22.10;1.00;;;;;;5062011;28;21008;-84
2022/08/13 04:05:50;;;;;;;1.23;1.13;;;22.10;1.00;;;;;;5061478;28;20447;-84
2022/08/13 04:08:24;;;;;;;1.17;1.07;;;22.10;1.00;;;;;;5062029;28;20941;-84
2022/08/13 04:10:52;;;;;;;1.40;1.30;;;22.00;1.00;;;;;;5067232;28;20459;-84
2022/08/13 04:13:24;;;;;;;1.47;1.37;;;22.00;1.00;;;;;;5059519;28;21060;-84
2022/08/13 04:16:16;;;;;;;1.50;1.40;;;22.00;1.00;;;;;;5058226;28;20542;-85
2022/08/13 04:18:46;;;;;;;1.40;1.30;;;22.00;1.00;;;;;;5062155;28;20561;-85
2022/08/13 04:21:15;;;;;;;1.60;1.50;;;22.00;1.00;;;;;;5061018;28;20461;-83
2022/08/13 04:23:52;;;;;;;2.83;1.30;;;21.90;1.00;;;;;;5056962;28;20952;-84
2022/08/13 04:26:24;;;;;;;1.57;1.47;;;21.90;1.00;;;;;;5058254;28;20462;-82
2022/08/13 04:29:02;;;;;;;1.73;1.30;;;21.90;1.00;;;;;;5061109;28;20454;-84
2022/08/13 04:31:33;;;;;;;1.30;1.20;;;21.90;1.00;;;;;;5058259;28;20481;-84
2022/08/13 04:34:20;;;;;;;1.40;1.30;;;21.80;1.00;;;;;;5060913;28;20504;-84
2022/08/13 04:37:08;;;;;;;2.43;1.33;;;21.80;1.00;;;;;;5057715;28;20573;-84
2022/08/13 04:39:50;;;;;;;1.37;1.10;;;21.80;1.00;;;;;;5060582;28;20572;-83
2022/08/13 04:42:53;;;;;;;1.30;1.20;;;21.80;1.00;;;;;;5054135;28;20467;-84
2022/08/13 04:45:22;;;;;;;1.43;1.33;;;21.70;1.00;;;;;;5059172;28;20447;-84
2022/08/13 04:47:58;;;;;;;1.60;1.50;;;21.70;1.00;;;;;;5062530;28;20459;-84
2022/08/13 04:50:29;;;;;;;2.90;1.70;;;21.70;1.00;;;;;;5067518;28;20458;-83
2022/08/13 04:52:58;;;;;;;1.30;1.20;;;21.70;1.00;;;;;;5066718;28;20965;-83
2022/08/13 04:55:26;;;;;;;2.03;1.30;;;21.70;1.00;;;;;;5069013;28;20466;-84
2022/08/13 04:58:15;;;;;;;1.60;1.33;;;21.70;1.00;;;;;;5064638;28;20992;-83
2022/08/13 05:00:45;;;;;;;1.43;1.33;;;21.70;1.00;;;;;;5063354;28;20554;-83
2022/08/13 05:03:22;;;;;;;3.10;1.50;;;21.70;1.00;;;;;;5059777;28;20454;-84
2022/08/13 05:06:00;;;;;;;1.70;1.60;;;21.70;1.00;;;;;;5068130;28;20858;-83
2022/08/13 05:08:32;;;;;;;1.93;1.83;;;21.60;1.00;;;;;;5067146;28;20446;-83
2022/08/13 05:11:02;;;;;;;2.00;1.30;;;21.70;1.00;;;;;;5062223;28;20459;-83
2022/08/13 05:13:43;;;;;;;2.60;1.50;;;21.60;1.00;;;;;;5062104;28;20477;-84
2022/08/13 05:16:14;;;;;;;1.13;1.13;;;21.60;1.00;;;;;;5062069;28;20447;-81
2022/08/13 05:18:54;;;;;;;1.70;1.60;;;21.60;1.00;;;;;;5067861;28;20477;-82
2022/08/13 05:21:24;;;;;;;1.80;1.50;;;21.60;1.00;;;;;;5062347;28;20554;-81
2022/08/13 05:24:12;;;;;;;1.53;1.43;;;21.70;1.00;;;;;;5060633;28;20450;-82
2022/08/13 05:27:01;;;;;;;1.50;1.40;;;21.70;1.00;;;;;;5057945;28;20459;-82
2022/08/13 05:29:38;;;;;;;1.70;1.60;;;21.70;1.00;;;;;;5064387;28;20446;-81
2022/08/13 05:32:27;;;;;;;1.70;1.60;;;21.80;1.00;;;;;;5063133;28;20467;-82
2022/08/13 05:35:10;;;;;;;1.60;1.40;;;21.80;1.00;;;;;;5060103;28;21027;-83
2022/08/13 05:37:39;;;;;;;2.50;1.60;;;21.70;1.00;;;;;;5064273;28;20449;-83
2022/08/13 05:40:27;;;;;;;1.60;1.50;;;21.80;1.00;;;;;;5064090;28;20953;-83
2022/08/13 05:43:10;;;;;;;1.50;1.40;;;21.80;1.00;;;;;;5066983;28;20470;-83
2022/08/13 05:45:39;;;;;;;1.83;1.73;;;21.80;1.00;;;;;;5062803;28;20447;-82
2022/08/13 05:48:21;;;;;;;1.47;1.37;;;21.90;1.00;;;;;;5059450;28;20465;-81
2022/08/13 05:50:59;;;;;;;1.73;1.60;;;21.90;1.00;;;;;;5066102;28;20492;-82
2022/08/13 05:53:28;;;;;;;1.50;1.40;;;21.90;1.00;;;;;;5056858;28;20471;-82
2022/08/13 05:56:16;;;;;;;3.43;1.57;;;22.00;1.00;;;;;;5060180;28;20496;-82
2022/08/13 05:58:45;;;;;;;1.43;1.33;;;22.10;1.00;;;;;;5071280;28;20940;-82
2022/08/13 06:04:03;;;;;;;1.70;1.60;;;22.20;1.00;;;;;;5064463;28;20496;-82
2022/08/13 06:06:46;;;;;;;2.10;1.63;;;22.20;1.00;;;;;;5065522;28;20556;-83
2022/08/13 06:09:16;;;;;;;1.30;1.20;;;22.30;1.00;;;;;;5057868;28;20455;-84
2022/08/13 06:11:51;;;;;;;2.15;1.20;;;22.40;1.00;;;;;;5053555;28;20478;-76
2022/08/13 06:14:39;;;;;;;1.73;1.60;;;22.50;1.00;;;;;;5056301;28;20525;-75
2022/08/13 06:17:22;;;;;;;1.47;1.30;;;22.50;1.00;;;;;;5049914;28;20189;-75
2022/08/13 06:19:51;;;;;;;1.23;1.20;;;22.60;1.00;;;;;;5061431;28;20529;-75
2022/08/13 06:22:24;;;;;;;1.80;1.40;;;22.80;1.00;;;;;;5059277;28;20476;-76
2022/08/13 06:24:54;;;;;;;1.40;1.30;;;22.70;1.00;;;;;;5058662;28;20444;-76
2022/08/13 06:27:24;;;;;;;1.40;1.30;;;22.70;1.00;;;;;;5053617;28;20473;-76
2022/08/13 06:30:14;;;;;;;1.57;1.30;;;22.80;1.00;;;;;;5055076;28;20439;-77
2022/08/13 06:33:01;;;;;;;1.33;1.23;;;23.00;1.00;;;;;;5051123;28;20479;-76
2022/08/13 06:35:50;;;;;;;1.73;1.20;;;23.10;1.00;;;;;;5057862;28;20473;-76
2022/08/13 06:38:29;;;;;;;1.63;1.40;;;23.30;1.00;;;;;;5062473;28;20457;-76
2022/08/13 06:41:02;;;;;;;2.30;1.70;;;23.40;1.00;;;;;;5060005;28;20506;-76
2022/08/13 06:43:32;;;;;;;1.60;1.50;;;23.50;1.00;;;;;;5056526;28;20527;-76
2022/08/13 06:46:22;;;;;;;1.70;1.57;;;23.60;1.00;;;;;;5051654;28;20549;-76
2022/08/13 06:48:57;;;;;;;1.40;1.30;;;23.70;1.00;;;;;;5060822;28;20465;-75
2022/08/13 06:51:29;;;;;;;1.73;1.40;;;23.70;1.00;;;;;;5057941;28;20570;-76
2022/08/13 06:54:08;;;;;;;1.10;1.10;;;23.90;1.00;;;;;;5053154;28;20485;-75
2022/08/13 06:56:57;;;;;;;1.50;1.40;;;24.00;1.00;;;;;;5051514;28;20442;-76
2022/08/13 06:59:39;;;;;;;2.87;2.40;;;24.10;1.00;;;;;;5050774;28;20995;-76
2022/08/13 07:02:29;;;;;;;1.20;1.10;;;24.20;1.00;;;;;;5060877;28;20523;-76
2022/08/13 07:04:58;;;;;;;1.20;1.20;;;24.40;1.00;;;;;;5056140;28;21008;-76
2022/08/13 07:07:27;;;;;;;1.20;1.20;;;24.50;1.00;;;;;;5051561;28;20534;-77
2022/08/13 07:09:57;;;;;;;1.57;1.07;;;24.60;1.00;;;;;;5060725;28;20443;-76
2022/08/13 07:12:25;;;;;;;1.30;1.20;;;24.70;1.00;;;;;;5051155;28;20475;-76
2022/08/13 07:14:54;;;;;;;1.40;1.20;;;24.80;1.00;;;;;;5051881;28;20474;-77
2022/08/13 07:17:29;;;;;;;1.50;1.40;;;24.90;1.00;;;;;;5053621;28;20459;-76
2022/08/13 07:20:04;;;;;;;1.10;1.10;;;25.00;1.00;;;;;;5051231;28;20523;-76
2022/08/13 07:22:50;;;;;;;1.10;1.10;;;25.00;1.00;;;;;;5046473;28;20572;-76
2022/08/13 07:25:41;;;;;;;1.40;1.30;;;25.10;1.00;;;;;;5051845;28;20484;-76
2022/08/13 07:28:26;;;;;;;1.43;1.33;;;25.20;1.00;;;;;;5054656;28;20535;-77
2022/08/13 07:31:16;;;;;;;1.40;1.30;;;25.30;1.00;;;;;;5058305;28;20538;-77
2022/08/13 07:33:49;;;;;;;1.50;1.40;;;25.40;1.00;;;;;;5055001;28;21115;-77
2022/08/13 07:36:29;;;;;;;1.03;1.03;;;25.40;1.00;;;;;;5061246;28;20469;-77
2022/08/13 07:38:58;;;;;;;1.27;1.17;;;25.50;1.00;;;;;;5066239;28;20443;-77
2022/08/13 07:41:40;;;;;;;1.60;1.50;;;25.50;1.00;;;;;;5057138;28;20673;-77
2022/08/13 07:44:28;;;;;;;1.97;1.50;;;25.60;1.00;;;;;;5048407;28;20535;-77
2022/08/13 07:46:59;;;;;;;1.30;1.20;;;25.70;2.30;;;;;;5047373;28;20617;-76
2022/08/13 07:49:28;;;;;;;1.40;1.30;;;25.70;1.00;;;;;;5066338;28;20461;-76
2022/08/13 07:52:13;;;;;;;1.57;1.47;;;25.60;1.00;;;;;;5059851;28;20471;-77
2022/08/13 07:54:44;;;;;;;1.43;1.33;;;25.70;1.00;;;;;;5062612;28;20481;-76
2022/08/13 07:57:18;;;;;;;1.90;1.40;;;25.70;1.00;;;;;;5053959;28;20461;-77
2022/08/13 07:59:55;;;;;;;1.20;1.10;;;25.70;1.20;;;;;;5061876;28;20572;-76
2022/08/13 08:02:42;;;;;;;1.40;1.30;;;25.70;1.50;;;;;;5050558;28;20570;-77
2022/08/13 08:05:14;;;;;;;1.93;1.20;;;25.80;1.20;;;;;;5055013;28;20463;-77
2022/08/13 08:07:50;;;;;;;2.33;1.00;;;25.70;1.10;;;;;;5063944;28;20458;-77
2022/08/13 08:10:38;;;;;;;2.00;1.20;;;25.80;1.00;;;;;;5065373;28;20461;-78
2022/08/13 08:13:11;;;;;;;1.97;1.47;;;25.80;1.00;;;;;;5053673;28;20489;-77
2022/08/13 08:15:42;;;;;;;1.60;1.30;;;25.80;1.00;;;;;;5062140;28;20485;-76
2022/08/13 08:18:32;;;;;;;1.50;1.40;;;25.80;1.00;;;;;;5059945;28;20458;-79
2022/08/13 08:21:23;;;;;;;1.30;1.20;;;25.90;1.80;;;;;;5073371;28;20452;-77
2022/08/13 08:24:13;;;;;;;1.30;1.20;;;25.90;1.00;;;;;;5066383;28;20993;-74
2022/08/13 08:26:59;;;;;;;1.40;1.17;;;26.00;1.40;;;;;;5059734;28;20577;-75
2022/08/13 08:29:31;;;;;;;1.17;1.07;;;26.00;2.00;;;;;;5066790;28;20450;-76
2022/08/13 08:32:08;;;;;;;1.40;1.20;;;26.00;2.20;;;;;;5060106;28;20474;-78
2022/08/13 08:34:39;;;;;;;1.30;1.23;;;26.10;2.10;;;;;;5054398;28;21489;-78
2022/08/13 08:42:35;;;;;;;1.50;1.40;;;26.10;1.50;;;;;;5058866;28;21115;-76
2022/08/13 08:43:11;;;;;;;1.50;1.40;;;26.20;2.10;;;;;;5061123;28;20536;-76
2022/08/13 08:45:53;;;;;;;1.33;1.23;;;26.20;2.80;;;;;;5054066;28;20479;-81
2022/08/13 08:48:41;;;;;;;1.40;1.30;;;26.20;3.00;;;;;;5060577;28;20941;-82
2022/08/13 08:51:11;;;;;;;1.43;1.33;;;26.30;3.80;;;;;;5058012;28;20201;-82
2022/08/13 08:53:47;;;;;;;1.60;1.50;;;26.40;2.80;;;;;;5062605;28;20455;-82
2022/08/13 08:56:36;;;;;;;1.60;1.20;;;26.30;2.50;;;;;;5051229;28;20605;-83
2022/08/13 08:59:20;;;;;;;1.60;1.35;;;26.30;2.70;;;;;;5059193;28;20501;-83
2022/08/13 09:01:54;;;;;;;1.10;1.10;;;26.30;3.40;;;;;;5063042;28;20220;-82
2022/08/13 09:04:29;;;;;;;1.50;1.40;;;26.40;5.50;;;;;;5056481;28;20454;-82
2022/08/13 09:07:18;;;;;;;1.40;1.30;;;26.40;4.30;;;;;;5062993;28;20457;-82
2022/08/13 09:09:51;;;;;;;1.20;1.10;;;26.40;3.40;;;;;;5068258;28;20489;-82
2022/08/13 09:12:25;;;;;;;1.13;1.10;;;26.40;2.70;;;;;;5061201;28;20466;-82
2022/08/13 09:14:57;;;;;;;1.37;1.27;;;26.30;2.40;;;;;;5062278;28;20486;-82
2022/08/13 09:17:29;;;;;;;1.40;1.30;;;26.30;2.20;;;;;;5067673;28;20446;-84
2022/08/13 09:20:04;;;;;;;1.20;1.10;;;26.30;4.80;;;;;;5070662;28;20438;-82
2022/08/13 09:22:32;;;;;;;1.40;1.30;;;26.40;2.90;;;;;;5062781;28;20892;-82
2022/08/13 09:25:00;;;;;;;1.27;1.20;;;26.30;4.40;;;;;;5065775;28;20528;-82
2022/08/13 09:27:30;;;;;;;1.13;1.10;;;26.30;5.90;;;;;;5066746;28;21016;-82
2022/08/13 09:30:19;;;;;;;1.53;1.43;;;26.30;3.60;;;;;;5061899;28;20443;-82
2022/08/13 09:32:56;;;;;;;1.80;1.70;;;26.30;5.00;;;;;;5068386;28;20529;-82
2022/08/13 09:35:26;;;;;;;1.17;1.17;;;26.40;4.80;;;;;;5063389;28;20482;-81
2022/08/13 09:38:03;;;;;;;1.40;1.30;;;26.40;4.90;;;;;;5062235;28;20977;-83
2022/08/13 09:40:33;;;;;;;1.20;1.20;;;26.40;3.70;;;;;;5060453;28;20463;-82
2022/08/13 09:43:27;;;;;;;2.30;1.10;;;26.40;4.40;;;;;;5063772;28;20470;-82
2022/08/13 09:46:16;;;;;;;1.20;1.10;;;25.90;4.30;;;;;;5060037;28;20445;-82
2022/08/13 09:48:51;;;;;;;1.33;1.23;;;26.50;5.90;;;;;;5066438;28;20987;-82
2022/08/13 09:51:22;;;;;;;1.57;1.07;;;26.50;5.20;;;;;;5069019;28;20465;-82
2022/08/13 09:54:10;;;;;;;1.30;1.20;;;26.50;4.50;;;;;;5051904;28;20443;-82
2022/08/13 09:56:40;;;;;;;1.63;1.30;;;26.50;6.70;;;;;;5064500;28;20572;-82
2022/08/13 09:59:09;;;;;;;2.60;1.30;;;26.50;4.80;;;;;;5064513;28;20459;-82
2022/08/13 10:01:57;;;;;;;1.20;1.17;;;26.60;4.70;;;;;;5061065;28;20479;-83
2022/08/13 10:04:30;;;;;;;1.27;1.17;;;26.60;7.20;;;;;;5062575;28;20475;-83
2022/08/13 10:07:01;;;;;;;1.50;1.30;;;26.60;8.00;;;;;;5068335;28;20454;-82
2022/08/13 10:09:44;;;;;;;1.30;1.20;;;26.70;6.60;;;;;;5057894;28;20844;-83
2022/08/13 10:12:23;;;;;;;1.30;1.20;;;26.70;6.40;;;;;;5062530;28;21013;-83
2022/08/13 10:14:51;;;;;;;1.63;1.53;;;26.80;8.00;;;;;;5066812;28;20508;-83
2022/08/13 10:17:25;;;;;;;1.73;1.60;;;26.80;8.40;;;;;;5056940;28;20451;-82
2022/08/13 10:20:16;;;;;;;1.50;1.40;;;26.90;6.30;;;;;;5065456;28;21042;-83
2022/08/13 10:22:47;;;;;;;1.27;1.17;;;26.90;5.80;;;;;;5064541;28;20466;-83
2022/08/13 10:25:16;;;;;;;1.87;1.37;;;26.90;7.40;;;;;;5061645;28;20817;-83
2022/08/13 10:27:47;;;;;;;1.40;1.30;;;27.00;6.00;;;;;;5060903;28;20455;-83
2022/08/13 10:30:18;;;;;;;1.67;1.57;;;27.00;7.00;;;;;;5056090;28;20447;-83
2022/08/13 10:33:08;;;;;;;1.63;1.53;;;27.00;7.00;;;;;;5062598;28;20506;-83
2022/08/13 10:35:38;;;;;;;2.40;1.40;;;27.00;10.00;;;;;;5061619;28;21059;-83
2022/08/13 10:38:18;;;;;;;1.50;1.40;;;27.00;9.20;;;;;;5063339;28;20451;-83
2022/08/13 10:40:48;;;;;;;1.50;1.40;;;27.10;6.70;;;;;;5059930;28;20487;-83
2022/08/13 10:43:20;;;;;;;1.60;1.50;;;27.10;5.60;;;;;;5061218;28;20495;-83
2022/08/13 10:45:56;;;;;;;1.50;1.40;;;27.10;5.40;;;;;;5059040;28;20454;-82
2022/08/13 10:48:34;;;;;;;1.30;1.20;;;27.00;5.70;;;;;;5059006;28;20538;-83
2022/08/13 10:51:04;;;;;;;2.53;1.70;;;27.10;6.90;;;;;;5057834;28;20450;-83
2022/08/13 10:56:21;;;;;;;1.57;1.47;;;27.10;16.90;;;;;;5064959;28;20471;-82
2022/08/13 10:58:54;;;;;;;2.90;1.40;;;27.10;5.30;;;;;;5062530;28;20982;-83
2022/08/13 11:01:24;;;;;;;1.40;1.30;;;27.10;4.90;;;;;;5062899;28;20533;-82
2022/08/13 11:03:53;;;;;;;3.30;1.37;;;27.20;4.60;;;;;;5054619;28;20431;-82
2022/08/13 11:06:36;;;;;;;1.43;1.30;;;27.10;5.50;;;;;;5064292;28;20579;-83
2022/08/13 11:09:07;;;;;;;1.77;1.30;;;27.10;4.00;;;;;;5057118;28;20457;-82
2022/08/13 11:11:57;;;;;;;1.50;1.20;;;27.10;5.60;;;;;;5060054;28;20511;-83
2022/08/13 11:14:29;;;;;;;1.53;1.20;;;27.10;4.30;;;;;;5061126;28;20447;-83
2022/08/13 11:17:07;;;;;;;1.43;1.33;;;27.10;4.80;;;;;;5067875;28;20573;-83
2022/08/13 11:19:56;;;;;;;1.67;1.57;;;27.10;5.50;;;;;;5061779;28;20501;-83
2022/08/13 11:22:32;;;;;;;1.57;1.23;;;27.10;5.40;;;;;;5054719;28;20497;-82
2022/08/13 11:25:03;;;;;;;2.33;1.47;;;27.20;5.40;;;;;;5051798;28;21363;-83
2022/08/13 11:27:52;;;;;;;1.30;1.20;;;27.20;5.20;;;;;;5061941;28;20490;-82
2022/08/13 11:30:22;;;;;;;1.87;1.67;;;27.10;5.30;;;;;;5057623;28;20446;-82
2022/08/13 11:33:03;;;;;;;1.97;1.73;;;27.20;5.90;;;;;;5054996;28;20481;-81
2022/08/13 11:35:36;;;;;;;1.53;1.30;;;27.20;8.70;;;;;;5054797;28;20501;-82
2022/08/13 11:38:10;;;;;;;2.03;1.93;;;27.30;7.90;;;;;;5059010;28;20451;-82
2022/08/13 11:40:39;;;;;;;5.30;1.50;;;27.40;6.40;;;;;;5049677;28;20462;-83
2022/08/13 11:43:07;;;;;;;2.13;1.17;;;27.40;7.60;;;;;;5052646;28;20510;-84
2022/08/13 11:45:40;;;;;;;3.13;1.50;;;27.40;8.60;;;;;;5059646;28;20490;-83
2022/08/13 11:48:14;;;;;;;1.77;1.50;;;27.50;9.20;;;;;;5057953;28;20457;-84
2022/08/13 11:50:57;;;;;;;1.27;1.17;;;27.50;8.20;;;;;;5054729;28;20559;-83
2022/08/13 11:53:28;;;;;;;1.30;1.20;;;27.60;7.40;;;;;;5049930;28;20544;-81
2022/08/13 11:55:57;;;;;;;2.33;1.67;;;27.60;8.50;;;;;;5060931;28;20454;-83
2022/08/13 11:58:33;;;;;;;1.70;1.30;;;27.60;8.90;;;;;;5057600;28;20451;-84
2022/08/13 12:01:22;;;;;;;1.57;1.47;;;27.60;7.60;;;;;;5055757;28;20454;-82
2022/08/13 12:03:53;;;;;;;1.40;1.30;;;27.70;9.50;;;;;;5066607;28;20462;-83
2022/08/13 12:06:42;;;;;;;1.73;1.50;;;27.80;6.90;;;;;;5055967;28;20520;-84
2022/08/13 12:09:20;;;;;;;1.50;1.40;;;27.70;8.00;;;;;;5055960;28;20554;-82
2022/08/13 12:12:08;;;;;;;1.50;1.40;;;27.80;8.20;;;;;;5059132;28;20558;-84
2022/08/13 12:14:48;;;;;;;4.10;1.20;;;27.80;7.10;;;;;;5053445;28;20605;-83
2022/08/13 12:17:17;;;;;;;1.77;1.50;;;27.70;8.20;;;;;;5051747;28;20493;-82
2022/08/13 12:20:07;;;;;;;2.17;2.00;;;27.70;7.10;;;;;;5053463;28;20558;-83
2022/08/13 12:22:48;;;;;;;1.50;1.40;;;27.70;7.00;;;;;;5055591;28;20566;-84
2022/08/13 12:25:21;;;;;;;1.60;1.50;;;27.80;7.80;;;;;;5053997;28;20485;-83
2022/08/13 12:28:16;;;;;;;2.23;1.50;;;27.80;7.60;;;;;;5057619;28;20971;-84
2022/08/13 12:30:56;;;;;;;1.37;1.27;;;27.80;7.60;;;;;;5054934;28;20459;-87
2022/08/13 12:33:25;;;;;;;1.73;1.57;;;27.80;7.00;;;;;;5056038;28;20479;-84
2022/08/13 12:36:00;;;;;;;1.77;1.67;;;27.80;8.90;;;;;;5055325;28;20461;-83
2022/08/13 12:38:31;;;;;;;1.30;1.20;;;27.90;8.50;;;;;;5055623;28;20466;-82
2022/08/13 12:41:01;;;;;;;1.90;1.50;;;28.00;8.40;;;;;;5051452;28;20462;-85
2022/08/13 12:43:46;;;;;;;1.70;1.60;;;28.00;8.40;;;;;;5055205;28;20529;-84
2022/08/13 12:46:34;;;;;;;1.50;1.40;;;28.10;9.50;;;;;;5059957;28;20208;-83
2022/08/13 12:49:04;;;;;;;1.80;1.30;;;28.10;11.30;;;;;;5056516;28;20451;-83
2022/08/13 12:51:42;;;;;;;1.43;1.33;;;28.10;9.20;;;;;;5051465;28;20562;-82
2022/08/13 12:54:27;;;;;;;1.80;1.33;;;28.10;8.60;;;;;;5056135;28;20451;-81
2022/08/13 12:57:17;;;;;;;2.30;1.50;;;28.10;8.50;;;;;;5052621;28;20452;-85
2022/08/13 13:00:08;;;;;;;1.45;1.35;;;28.20;11.80;;;;;;5069637;28;20471;-89
2022/08/13 13:02:41;;;;;;;1.40;1.17;;;28.30;9.60;;;;;;5061544;28;20746;-87
2022/08/13 13:05:15;;;;;;;1.40;1.20;;;28.30;10.50;;;;;;5061962;28;20462;-86
2022/08/13 13:07:47;;;;;;;1.30;1.20;;;28.30;9.80;;;;;;5057486;28;20533;-85
2022/08/13 13:10:36;;;;;;;1.30;1.20;;;28.30;8.70;;;;;;5062676;28;20661;-89
2022/08/13 13:13:07;;;;;;;1.50;1.40;;;28.30;8.50;;;;;;5064997;28;20670;-85
2022/08/13 13:15:56;;;;;;;1.40;1.13;;;28.30;12.10;;;;;;5067378;28;20497;-84
2022/08/13 13:18:45;;;;;;;2.43;1.40;;;28.30;8.20;;;;;;5066032;28;20478;-87
2022/08/13 13:21:22;;;;;;;1.40;1.30;;;28.30;8.50;;;;;;5067144;28;20495;-85
2022/08/13 13:24:00;;;;;;;2.73;1.60;;;28.30;9.50;;;;;;5067433;28;20942;-85
2022/08/13 13:26:33;;;;;;;1.50;1.30;;;28.40;9.70;;;;;;5073484;28;20473;-85
2022/08/13 13:29:04;;;;;;;1.30;1.20;;;28.40;9.80;;;;;;5056172;28;20455;-85
2022/08/13 13:31:32;;;;;;;2.20;1.10;;;28.40;9.40;;;;;;5065081;28;20513;-85
2022/08/13 13:34:21;;;;;;;1.30;1.20;;;28.40;9.20;;;;;;5058176;28;20509;-84
2022/08/13 13:36:50;;;;;;;1.30;1.20;;;28.40;9.10;;;;;;5069198;28;20451;-85
2022/08/13 13:39:22;;;;;;;1.60;1.50;;;28.40;9.20;;;;;;5072607;28;20494;-84
2022/08/13 13:41:50;;;;;;;1.30;1.20;;;28.40;8.00;;;;;;5064761;28;20482;-85
2022/08/13 13:44:23;;;;;;;2.13;1.23;;;28.40;10.60;;;;;;5055911;28;20451;-85
2022/08/13 13:47:09;;;;;;;1.07;1.07;;;28.40;12.70;;;;;;5055868;28;20443;-85
2022/08/13 13:49:38;;;;;;;1.20;1.10;;;28.40;12.60;;;;;;5064233;28;20474;-85
2022/08/13 13:52:08;;;;;;;1.63;1.40;;;28.50;11.70;;;;;;5060283;28;20478;-83
2022/08/13 13:54:37;;;;;;;1.57;1.20;;;28.50;10.10;;;;;;5061994;28;20484;-83
2022/08/13 13:57:06;;;;;;;1.70;1.10;;;28.50;10.90;;;;;;5062339;28;20546;-82
2022/08/13 13:59:36;;;;;;;1.47;1.37;;;28.60;9.60;;;;;;5058802;28;20462;-84
2022/08/13 14:02:23;;;;;;;1.50;1.40;;;28.60;9.40;;;;;;5061417;28;20478;-83
2022/08/13 14:05:01;;;;;;;1.67;1.20;;;28.60;7.30;;;;;;5058009;28;20461;-82
2022/08/13 14:07:54;;;;;;;1.20;1.13;;;28.60;8.40;;;;;;5058047;28;20451;-82